Terminal Aerodrome Forecast
Issued by NWS Duluth, MN

Home | Current Version | Previous Version | Text Only | Print | Product List | Glossary On
Versions: 1 2 3 4 5 6 7 8 9 10 11 12 13 14 15 16
557
FTUS43 KDLH 022335
TAFINL
TAF
KINL 022335Z 0300/0324 23008KT P6SM SKC
     FM031100 25006KT P6SM BKN080
     FM031400 30014G21KT P6SM BKN100
     FM031600 33017G27KT P6SM SCT100=

USA.gov is the U.S. government's official web portal to all federal, state and local government web resources and services.